New Castle, IN (47362)

9:32 PM EST on February 12, 2016 (GMT -0500)
Downtown New Castle | | Change Station
CLOSE
Current Station
Personal Weather Station
Location: New Castle, IN
Elevation: 1060 ft
Nearby Weather Stations

Elev 1060 ft 39.93 °N, 85.37 °W | Updated 32 seconds ago

Overcast
Overcast
19.6 °F
Feels Like 9 °F
N
9.0
Wind Variable Wind from North
Gusts 14.0 mph

Today
High -- | Low -- °F
--% Chance of Precip.
Yesterday
High -- | Low -- °F
Precip. -- in
Pressure 30.26 in
Visibility 10.0 miles
Clouds Scattered Clouds 5000 ft
Windchill 9 °F
Dew Point 12 °F
Humidity 73%
Rainfall 0.37 in
Snow Depth Not available.
7:38 AM 6:13 PM
Waxing Crescent, 26% visible
METAR KMIE 130153Z 31012G21KT 10SM SCT050 M07/M15 A3022 RMK AO2 SLP246 T10721150
Pressure 30.26 in
Visibility 10.0 miles
Clouds Scattered Clouds 5000 ft
Windchill 9 °F
Dew Point 12 °F
Humidity 73%
Rainfall 0.37 in
Snow Depth Not available.
7:38 AM 6:13 PM
Waxing Crescent, 26% visible
METAR KMIE 130153Z 31012G21KT 10SM SCT050 M07/M15 A3022 RMK AO2 SLP246 T10721150

10-Day Weather Forecast

Almanac

Astronomy

Feb. 12, 2016 Rise Set
Actual Time
Civil Twilight
Nautical Twilight
Astronomical Twilight
Moon
Length of Visible Light
Length of Day
Tomorrow will be .
, % of the Moon is Illuminated

Today's Extremes

State Highs State Lows

Community

WunderPhotos

Upload Photos

1,892,464 photos uploaded!

WunderBlog® & News

Nearby

Air Quality

  Air Quality AQ Index Pollutant
Not available.

Snow Depth

Station Depth Elevation

Earthquake Activity

City Distance Mag. Time & Date
Minimum magnitude displayed is 2.5.

Coastal Water Temperatures

Place Temperature

Stations

Nearby Weather Stations

Station Location Temp. Windchill Dew Point Humidity Wind Precip. Elev Updated Type
                   

Watches & Warnings

There are currently no watches in effect.